sensor_id;sensor_type;location;lat;lon;timestamp;temperature;humidity
75621;DHT22;64574;48.506;-2.750;2023-09-07T00:00:52;21.50;74.80
75621;DHT22;64574;48.506;-2.750;2023-09-07T00:03:17;21.50;74.80
75621;DHT22;64574;48.506;-2.750;2023-09-07T00:05:43;21.50;74.60
75621;DHT22;64574;48.506;-2.750;2023-09-07T00:08:10;21.50;74.70
75621;DHT22;64574;48.506;-2.750;2023-09-07T00:10:35;21.50;74.80
75621;DHT22;64574;48.506;-2.750;2023-09-07T00:13:02;21.50;74.60
75621;DHT22;64574;48.506;-2.750;2023-09-07T00:15:28;21.50;74.80
75621;DHT22;64574;48.506;-2.750;2023-09-07T00:17:55;21.50;74.60
75621;DHT22;64574;48.506;-2.750;2023-09-07T00:20:21;21.40;74.80
75621;DHT22;64574;48.506;-2.750;2023-09-07T00:22:47;21.50;74.70
75621;DHT22;64574;48.506;-2.750;2023-09-07T00:25:13;21.50;74.60
75621;DHT22;64574;48.506;-2.750;2023-09-07T00:27:39;21.50;74.60
75621;DHT22;64574;48.506;-2.750;2023-09-07T00:30:05;21.40;74.60
75621;DHT22;64574;48.506;-2.750;2023-09-07T00:32:35;21.30;75.00
75621;DHT22;64574;48.506;-2.750;2023-09-07T00:35:01;21.30;75.10
75621;DHT22;64574;48.506;-2.750;2023-09-07T00:37:26;21.30;75.10
75621;DHT22;64574;48.506;-2.750;2023-09-07T00:39:52;21.30;75.10
75621;DHT22;64574;48.506;-2.750;2023-09-07T00:42:18;21.30;75.30
75621;DHT22;64574;48.506;-2.750;2023-09-07T00:44:43;21.20;75.50
75621;DHT22;64574;48.506;-2.750;2023-09-07T00:47:09;21.30;75.30
75621;DHT22;64574;48.506;-2.750;2023-09-07T00:49:35;21.20;75.30
75621;DHT22;64574;48.506;-2.750;2023-09-07T00:52:00;21.10;75.50
75621;DHT22;64574;48.506;-2.750;2023-09-07T00:54:26;21.10;75.80
75621;DHT22;64574;48.506;-2.750;2023-09-07T00:56:52;21.20;75.70
75621;DHT22;64574;48.506;-2.750;2023-09-07T00:59:17;21.30;75.20
75621;DHT22;64574;48.506;-2.750;2023-09-07T01:01:43;21.40;74.90
75621;DHT22;64574;48.506;-2.750;2023-09-07T01:04:09;21.30;75.10
75621;DHT22;64574;48.506;-2.750;2023-09-07T01:06:42;21.40;75.10
75621;DHT22;64574;48.506;-2.750;2023-09-07T01:09:19;21.40;75.00
75621;DHT22;64574;48.506;-2.750;2023-09-07T01:11:44;21.40;75.00
75621;DHT22;64574;48.506;-2.750;2023-09-07T01:14:10;21.40;75.00
75621;DHT22;64574;48.506;-2.750;2023-09-07T01:16:36;21.40;75.20
75621;DHT22;64574;48.506;-2.750;2023-09-07T01:19:05;21.30;75.20
75621;DHT22;64574;48.506;-2.750;2023-09-07T01:21:34;21.30;75.40
75621;DHT22;64574;48.506;-2.750;2023-09-07T01:24:02;21.30;75.60
75621;DHT22;64574;48.506;-2.750;2023-09-07T01:26:29;21.30;75.40
75621;DHT22;64574;48.506;-2.750;2023-09-07T01:28:54;21.30;75.50
75621;DHT22;64574;48.506;-2.750;2023-09-07T01:31:20;21.30;75.30
75621;DHT22;64574;48.506;-2.750;2023-09-07T01:33:45;21.40;75.30
75621;DHT22;64574;48.506;-2.750;2023-09-07T01:36:11;21.40;75.30
75621;DHT22;64574;48.506;-2.750;2023-09-07T01:38:37;21.30;75.30
75621;DHT22;64574;48.506;-2.750;2023-09-07T01:41:02;21.30;75.30
75621;DHT22;64574;48.506;-2.750;2023-09-07T01:43:28;21.30;75.40
75621;DHT22;64574;48.506;-2.750;2023-09-07T01:45:53;21.30;75.50
75621;DHT22;64574;48.506;-2.750;2023-09-07T01:48:19;21.30;75.50
75621;DHT22;64574;48.506;-2.750;2023-09-07T01:50:44;21.20;75.70
75621;DHT22;64574;48.506;-2.750;2023-09-07T01:53:10;21.10;75.70
75621;DHT22;64574;48.506;-2.750;2023-09-07T01:55:36;21.10;75.80
75621;DHT22;64574;48.506;-2.750;2023-09-07T01:58:01;21.10;75.90
75621;DHT22;64574;48.506;-2.750;2023-09-07T02:00:27;21.10;75.70
75621;DHT22;64574;48.506;-2.750;2023-09-07T02:02:52;21.10;75.70
75621;DHT22;64574;48.506;-2.750;2023-09-07T02:05:18;21.10;75.90
75621;DHT22;64574;48.506;-2.750;2023-09-07T02:07:44;21.10;76.00
75621;DHT22;64574;48.506;-2.750;2023-09-07T02:10:10;21.10;75.90
75621;DHT22;64574;48.506;-2.750;2023-09-07T02:12:36;21.00;76.10
75621;DHT22;64574;48.506;-2.750;2023-09-07T02:15:03;21.00;76.20
75621;DHT22;64574;48.506;-2.750;2023-09-07T02:17:29;21.10;76.20
75621;DHT22;64574;48.506;-2.750;2023-09-07T02:19:55;21.10;76.00
75621;DHT22;64574;48.506;-2.750;2023-09-07T02:22:21;21.20;75.70
75621;DHT22;64574;48.506;-2.750;2023-09-07T02:24:46;21.10;75.70
75621;DHT22;64574;48.506;-2.750;2023-09-07T02:27:12;21.20;75.70
75621;DHT22;64574;48.506;-2.750;2023-09-07T02:29:37;21.10;75.70
75621;DHT22;64574;48.506;-2.750;2023-09-07T02:32:03;21.10;75.80
75621;DHT22;64574;48.506;-2.750;2023-09-07T02:34:30;21.10;75.90
75621;DHT22;64574;48.506;-2.750;2023-09-07T02:36:55;21.10;75.80
75621;DHT22;64574;48.506;-2.750;2023-09-07T02:39:22;21.10;75.70
75621;DHT22;64574;48.506;-2.750;2023-09-07T02:41:52;21.10;75.70
75621;DHT22;64574;48.506;-2.750;2023-09-07T02:44:17;21.10;75.70
75621;DHT22;64574;48.506;-2.750;2023-09-07T02:46:43;21.10;76.10
75621;DHT22;64574;48.506;-2.750;2023-09-07T02:49:09;21.00;76.50
75621;DHT22;64574;48.506;-2.750;2023-09-07T02:51:35;21.00;76.50
75621;DHT22;64574;48.506;-2.750;2023-09-07T02:54:02;21.00;76.50
75621;DHT22;64574;48.506;-2.750;2023-09-07T02:56:29;21.10;76.20
75621;DHT22;64574;48.506;-2.750;2023-09-07T02:58:54;21.00;76.20
75621;DHT22;64574;48.506;-2.750;2023-09-07T03:01:20;21.00;76.20
75621;DHT22;64574;48.506;-2.750;2023-09-07T03:03:46;21.00;76.20
75621;DHT22;64574;48.506;-2.750;2023-09-07T03:06:13;21.00;76.30
75621;DHT22;64574;48.506;-2.750;2023-09-07T03:08:42;21.00;76.30
75621;DHT22;64574;48.506;-2.750;2023-09-07T03:11:08;21.00;76.50
75621;DHT22;64574;48.506;-2.750;2023-09-07T03:13:34;21.00;76.50
75621;DHT22;64574;48.506;-2.750;2023-09-07T03:16:01;21.00;76.50
75621;DHT22;64574;48.506;-2.750;2023-09-07T03:18:28;21.00;76.40
75621;DHT22;64574;48.506;-2.750;2023-09-07T03:20:54;21.00;76.30
75621;DHT22;64574;48.506;-2.750;2023-09-07T03:23:23;20.90;76.80
75621;DHT22;64574;48.506;-2.750;2023-09-07T03:25:49;20.90;76.80
75621;DHT22;64574;48.506;-2.750;2023-09-07T03:28:15;20.90;77.00
75621;DHT22;64574;48.506;-2.750;2023-09-07T03:30:40;20.80;76.90
75621;DHT22;64574;48.506;-2.750;2023-09-07T03:33:06;20.80;77.10
75621;DHT22;64574;48.506;-2.750;2023-09-07T03:35:32;20.70;77.30
75621;DHT22;64574;48.506;-2.750;2023-09-07T03:37:58;20.80;77.10
75621;DHT22;64574;48.506;-2.750;2023-09-07T03:40:24;20.80;76.90
75621;DHT22;64574;48.506;-2.750;2023-09-07T03:42:50;20.80;76.90
75621;DHT22;64574;48.506;-2.750;2023-09-07T03:45:15;20.80;77.10
75621;DHT22;64574;48.506;-2.750;2023-09-07T03:47:41;20.90;76.80
75621;DHT22;64574;48.506;-2.750;2023-09-07T03:50:08;20.90;76.70
75621;DHT22;64574;48.506;-2.750;2023-09-07T03:52:33;20.90;76.70
75621;DHT22;64574;48.506;-2.750;2023-09-07T03:54:59;20.90;76.90
75621;DHT22;64574;48.506;-2.750;2023-09-07T03:57:26;20.90;77.00
75621;DHT22;64574;48.506;-2.750;2023-09-07T03:59:53;20.90;77.20
75621;DHT22;64574;48.506;-2.750;2023-09-07T04:02:20;20.80;77.50
75621;DHT22;64574;48.506;-2.750;2023-09-07T04:04:53;20.80;77.50
75621;DHT22;64574;48.506;-2.750;2023-09-07T04:07:19;20.80;77.30
75621;DHT22;64574;48.506;-2.750;2023-09-07T04:09:45;20.80;77.40
75621;DHT22;64574;48.506;-2.750;2023-09-07T04:12:11;20.90;77.30
75621;DHT22;64574;48.506;-2.750;2023-09-07T04:14:37;20.80;77.30
75621;DHT22;64574;48.506;-2.750;2023-09-07T04:17:04;20.80;77.60
75621;DHT22;64574;48.506;-2.750;2023-09-07T04:19:29;20.80;77.50
75621;DHT22;64574;48.506;-2.750;2023-09-07T04:21:56;20.80;77.40
75621;DHT22;64574;48.506;-2.750;2023-09-07T04:24:21;20.80;77.50
75621;DHT22;64574;48.506;-2.750;2023-09-07T04:26:47;20.80;77.60
75621;DHT22;64574;48.506;-2.750;2023-09-07T04:29:14;20.80;77.50
75621;DHT22;64574;48.506;-2.750;2023-09-07T04:31:39;20.80;77.70
75621;DHT22;64574;48.506;-2.750;2023-09-07T04:34:05;20.80;77.80
75621;DHT22;64574;48.506;-2.750;2023-09-07T04:36:30;20.80;77.80
75621;DHT22;64574;48.506;-2.750;2023-09-07T04:38:56;20.60;78.30
75621;DHT22;64574;48.506;-2.750;2023-09-07T04:41:23;20.70;78.20
75621;DHT22;64574;48.506;-2.750;2023-09-07T04:43:48;20.60;78.30
75621;DHT22;64574;48.506;-2.750;2023-09-07T04:46:14;20.60;78.30
75621;DHT22;64574;48.506;-2.750;2023-09-07T04:48:41;20.60;78.20
75621;DHT22;64574;48.506;-2.750;2023-09-07T04:51:08;20.70;78.00
75621;DHT22;64574;48.506;-2.750;2023-09-07T04:53:35;20.70;78.00
75621;DHT22;64574;48.506;-2.750;2023-09-07T04:56:01;20.70;77.90
75621;DHT22;64574;48.506;-2.750;2023-09-07T04:58:27;20.70;77.90
75621;DHT22;64574;48.506;-2.750;2023-09-07T05:00:53;20.70;78.00
75621;DHT22;64574;48.506;-2.750;2023-09-07T05:03:19;20.70;78.10
75621;DHT22;64574;48.506;-2.750;2023-09-07T05:05:45;20.60;78.10
75621;DHT22;64574;48.506;-2.750;2023-09-07T05:08:15;20.70;78.20
75621;DHT22;64574;48.506;-2.750;2023-09-07T05:10:41;20.70;78.10
75621;DHT22;64574;48.506;-2.750;2023-09-07T05:13:08;20.60;78.30
75621;DHT22;64574;48.506;-2.750;2023-09-07T05:15:33;20.60;78.10
75621;DHT22;64574;48.506;-2.750;2023-09-07T05:17:59;20.50;78.50
75621;DHT22;64574;48.506;-2.750;2023-09-07T05:20:25;20.50;78.70
75621;DHT22;64574;48.506;-2.750;2023-09-07T05:22:52;20.60;78.60
75621;DHT22;64574;48.506;-2.750;2023-09-07T05:25:18;20.60;78.40
75621;DHT22;64574;48.506;-2.750;2023-09-07T05:27:45;20.60;78.20
75621;DHT22;64574;48.506;-2.750;2023-09-07T05:30:11;20.60;78.40
75621;DHT22;64574;48.506;-2.750;2023-09-07T05:32:37;20.60;78.30
75621;DHT22;64574;48.506;-2.750;2023-09-07T05:35:03;20.60;78.40
75621;DHT22;64574;48.506;-2.750;2023-09-07T05:37:29;20.60;78.70
75621;DHT22;64574;48.506;-2.750;2023-09-07T05:39:55;20.60;78.90
75621;DHT22;64574;48.506;-2.750;2023-09-07T05:42:21;20.60;78.80
75621;DHT22;64574;48.506;-2.750;2023-09-07T05:44:46;20.70;78.70
75621;DHT22;64574;48.506;-2.750;2023-09-07T05:47:12;20.60;78.80
75621;DHT22;64574;48.506;-2.750;2023-09-07T05:49:37;20.60;78.60
75621;DHT22;64574;48.506;-2.750;2023-09-07T05:52:03;20.70;78.70
75621;DHT22;64574;48.506;-2.750;2023-09-07T05:54:29;20.70;78.70
75621;DHT22;64574;48.506;-2.750;2023-09-07T05:56:54;20.70;78.90
75621;DHT22;64574;48.506;-2.750;2023-09-07T05:59:20;20.70;78.90
75621;DHT22;64574;48.506;-2.750;2023-09-07T06:01:46;20.60;78.60
75621;DHT22;64574;48.506;-2.750;2023-09-07T06:04:11;20.70;78.90
75621;DHT22;64574;48.506;-2.750;2023-09-07T06:06:37;20.70;78.90
75621;DHT22;64574;48.506;-2.750;2023-09-07T06:09:03;20.70;78.70
75621;DHT22;64574;48.506;-2.750;2023-09-07T06:11:29;20.70;78.80
75621;DHT22;64574;48.506;-2.750;2023-09-07T06:13:55;20.70;78.60
75621;DHT22;64574;48.506;-2.750;2023-09-07T06:16:21;20.80;78.70
75621;DHT22;64574;48.506;-2.750;2023-09-07T06:18:46;20.90;78.50
75621;DHT22;64574;48.506;-2.750;2023-09-07T06:21:12;20.90;78.40
75621;DHT22;64574;48.506;-2.750;2023-09-07T06:23:38;21.00;78.40
75621;DHT22;64574;48.506;-2.750;2023-09-07T06:26:03;21.00;78.50
75621;DHT22;64574;48.506;-2.750;2023-09-07T06:28:29;21.00;78.60
75621;DHT22;64574;48.506;-2.750;2023-09-07T06:30:54;21.10;78.50
75621;DHT22;64574;48.506;-2.750;2023-09-07T06:33:20;21.10;78.30
75621;DHT22;64574;48.506;-2.750;2023-09-07T06:35:46;21.20;78.20
75621;DHT22;64574;48.506;-2.750;2023-09-07T06:38:11;21.10;78.30
75621;DHT22;64574;48.506;-2.750;2023-09-07T06:40:37;21.10;78.60
75621;DHT22;64574;48.506;-2.750;2023-09-07T06:43:03;21.10;78.50
75621;DHT22;64574;48.506;-2.750;2023-09-07T06:45:37;21.10;78.60
75621;DHT22;64574;48.506;-2.750;2023-09-07T06:48:03;21.10;78.70
75621;DHT22;64574;48.506;-2.750;2023-09-07T06:50:29;21.10;78.70
75621;DHT22;64574;48.506;-2.750;2023-09-07T06:52:55;21.30;78.70
75621;DHT22;64574;48.506;-2.750;2023-09-07T06:55:20;21.30;78.70
75621;DHT22;64574;48.506;-2.750;2023-09-07T06:57:46;21.30;79.00
75621;DHT22;64574;48.506;-2.750;2023-09-07T07:00:12;21.40;78.90
75621;DHT22;64574;48.506;-2.750;2023-09-07T07:02:37;21.40;79.00
75621;DHT22;64574;48.506;-2.750;2023-09-07T07:05:04;21.40;79.30
75621;DHT22;64574;48.506;-2.750;2023-09-07T07:07:30;21.40;79.40
75621;DHT22;64574;48.506;-2.750;2023-09-07T07:09:56;21.50;79.00
75621;DHT22;64574;48.506;-2.750;2023-09-07T07:12:21;21.70;78.70
75621;DHT22;64574;48.506;-2.750;2023-09-07T07:14:47;21.70;78.70
75621;DHT22;64574;48.506;-2.750;2023-09-07T07:17:13;21.80;78.80
75621;DHT22;64574;48.506;-2.750;2023-09-07T07:19:39;21.90;78.80
75621;DHT22;64574;48.506;-2.750;2023-09-07T07:22:05;21.90;78.70
75621;DHT22;64574;48.506;-2.750;2023-09-07T07:24:30;21.90;78.60
75621;DHT22;64574;48.506;-2.750;2023-09-07T07:26:56;21.90;78.70
75621;DHT22;64574;48.506;-2.750;2023-09-07T07:29:21;21.90;78.80
75621;DHT22;64574;48.506;-2.750;2023-09-07T07:31:47;22.00;78.70
75621;DHT22;64574;48.506;-2.750;2023-09-07T07:34:13;22.00;78.70
75621;DHT22;64574;48.506;-2.750;2023-09-07T07:36:38;22.10;78.60
75621;DHT22;64574;48.506;-2.750;2023-09-07T07:39:05;22.10;78.70
75621;DHT22;64574;48.506;-2.750;2023-09-07T07:41:32;22.10;78.80
75621;DHT22;64574;48.506;-2.750;2023-09-07T07:43:58;22.20;78.70
75621;DHT22;64574;48.506;-2.750;2023-09-07T07:46:23;22.20;78.70
75621;DHT22;64574;48.506;-2.750;2023-09-07T07:48:49;22.30;78.70
75621;DHT22;64574;48.506;-2.750;2023-09-07T07:51:15;22.30;78.80
75621;DHT22;64574;48.506;-2.750;2023-09-07T07:53:40;22.30;78.70
75621;DHT22;64574;48.506;-2.750;2023-09-07T07:56:13;22.30;78.80
75621;DHT22;64574;48.506;-2.750;2023-09-07T07:58:40;22.40;79.00
75621;DHT22;64574;48.506;-2.750;2023-09-07T08:01:16;22.40;78.80
75621;DHT22;64574;48.506;-2.750;2023-09-07T08:03:42;22.40;78.70
75621;DHT22;64574;48.506;-2.750;2023-09-07T08:06:08;22.40;78.90
75621;DHT22;64574;48.506;-2.750;2023-09-07T08:08:34;22.30;79.00
75621;DHT22;64574;48.506;-2.750;2023-09-07T08:11:00;22.30;79.20
75621;DHT22;64574;48.506;-2.750;2023-09-07T08:13:30;22.40;79.20
75621;DHT22;64574;48.506;-2.750;2023-09-07T08:15:55;22.40;79.10
75621;DHT22;64574;48.506;-2.750;2023-09-07T08:18:21;22.50;79.00
75621;DHT22;64574;48.506;-2.750;2023-09-07T08:20:49;22.50;79.10
75621;DHT22;64574;48.506;-2.750;2023-09-07T08:23:14;22.50;79.00
75621;DHT22;64574;48.506;-2.750;2023-09-07T08:25:40;22.60;78.90
75621;DHT22;64574;48.506;-2.750;2023-09-07T08:28:10;22.60;78.90
75621;DHT22;64574;48.506;-2.750;2023-09-07T08:30:36;22.70;78.80
75621;DHT22;64574;48.506;-2.750;2023-09-07T08:33:02;22.70;78.80
75621;DHT22;64574;48.506;-2.750;2023-09-07T08:35:30;22.80;78.90
75621;DHT22;64574;48.506;-2.750;2023-09-07T08:38:03;22.90;79.00
75621;DHT22;64574;48.506;-2.750;2023-09-07T08:40:34;22.90;78.70
75621;DHT22;64574;48.506;-2.750;2023-09-07T08:43:02;23.00;78.40
75621;DHT22;64574;48.506;-2.750;2023-09-07T08:45:29;23.10;78.30
75621;DHT22;64574;48.506;-2.750;2023-09-07T08:47:56;23.10;78.40
75621;DHT22;64574;48.506;-2.750;2023-09-07T08:50:23;23.20;78.40
75621;DHT22;64574;48.506;-2.750;2023-09-07T08:52:52;23.20;78.40
75621;DHT22;64574;48.506;-2.750;2023-09-07T08:55:17;23.20;78.60
75621;DHT22;64574;48.506;-2.750;2023-09-07T08:57:43;23.20;78.50
75621;DHT22;64574;48.506;-2.750;2023-09-07T09:00:09;23.20;78.60
75621;DHT22;64574;48.506;-2.750;2023-09-07T09:02:41;23.30;78.40
75621;DHT22;64574;48.506;-2.750;2023-09-07T09:05:09;23.40;78.00
75621;DHT22;64574;48.506;-2.750;2023-09-07T09:07:34;23.50;77.80
75621;DHT22;64574;48.506;-2.750;2023-09-07T09:10:05;23.60;77.50
75621;DHT22;64574;48.506;-2.750;2023-09-07T09:12:31;23.70;77.20
75621;DHT22;64574;48.506;-2.750;2023-09-07T09:14:59;23.80;76.70
75621;DHT22;64574;48.506;-2.750;2023-09-07T09:17:25;23.80;76.90
75621;DHT22;64574;48.506;-2.750;2023-09-07T09:19:51;24.00;75.90
75621;DHT22;64574;48.506;-2.750;2023-09-07T09:22:17;24.00;75.70
75621;DHT22;64574;48.506;-2.750;2023-09-07T09:24:42;24.00;75.90
75621;DHT22;64574;48.506;-2.750;2023-09-07T09:27:08;24.20;74.90
75621;DHT22;64574;48.506;-2.750;2023-09-07T09:29:34;24.40;74.10
75621;DHT22;64574;48.506;-2.750;2023-09-07T09:32:04;24.40;73.80
75621;DHT22;64574;48.506;-2.750;2023-09-07T09:34:34;24.40;73.80
75621;DHT22;64574;48.506;-2.750;2023-09-07T09:37:01;24.60;73.10
75621;DHT22;64574;48.506;-2.750;2023-09-07T09:39:27;24.60;73.10
75621;DHT22;64574;48.506;-2.750;2023-09-07T09:41:53;24.60;72.90
75621;DHT22;64574;48.506;-2.750;2023-09-07T09:44:22;24.70;72.70
75621;DHT22;64574;48.506;-2.750;2023-09-07T09:46:52;24.70;72.80
75621;DHT22;64574;48.506;-2.750;2023-09-07T09:49:20;24.70;72.70
75621;DHT22;64574;48.506;-2.750;2023-09-07T09:51:48;24.80;72.90
75621;DHT22;64574;48.506;-2.750;2023-09-07T09:54:18;24.70;72.80
75621;DHT22;64574;48.506;-2.750;2023-09-07T09:56:44;24.70;72.90
75621;DHT22;64574;48.506;-2.750;2023-09-07T09:59:14;24.70;72.60
75621;DHT22;64574;48.506;-2.750;2023-09-07T10:01:49;24.70;72.60
75621;DHT22;64574;48.506;-2.750;2023-09-07T10:04:17;24.70;72.20
75621;DHT22;64574;48.506;-2.750;2023-09-07T10:07:04;24.60;72.10
75621;DHT22;64574;48.506;-2.750;2023-09-07T10:09:32;24.60;72.20
75621;DHT22;64574;48.506;-2.750;2023-09-07T10:11:58;24.60;72.30
75621;DHT22;64574;48.506;-2.750;2023-09-07T10:14:25;24.70;72.30
75621;DHT22;64574;48.506;-2.750;2023-09-07T10:16:54;24.90;71.90
75621;DHT22;64574;48.506;-2.750;2023-09-07T10:19:25;25.00;71.00
75621;DHT22;64574;48.506;-2.750;2023-09-07T10:21:55;25.00;70.30
75621;DHT22;64574;48.506;-2.750;2023-09-07T10:27:03;25.00;69.70
75621;DHT22;64574;48.506;-2.750;2023-09-07T10:29:44;25.00;69.50
75621;DHT22;64574;48.506;-2.750;2023-09-07T10:32:10;25.40;68.40
75621;DHT22;64574;48.506;-2.750;2023-09-07T10:34:41;25.30;68.20
75621;DHT22;64574;48.506;-2.750;2023-09-07T10:37:13;25.30;68.20
75621;DHT22;64574;48.506;-2.750;2023-09-07T10:39:39;25.20;67.90
75621;DHT22;64574;48.506;-2.750;2023-09-07T10:42:05;25.30;68.00
75621;DHT22;64574;48.506;-2.750;2023-09-07T10:44:31;25.50;68.00
75621;DHT22;64574;48.506;-2.750;2023-09-07T10:46:57;25.40;68.10
75621;DHT22;64574;48.506;-2.750;2023-09-07T10:49:24;25.40;68.20
75621;DHT22;64574;48.506;-2.750;2023-09-07T10:51:50;25.40;68.10
75621;DHT22;64574;48.506;-2.750;2023-09-07T10:54:22;25.50;67.90
75621;DHT22;64574;48.506;-2.750;2023-09-07T10:56:49;25.60;68.00
75621;DHT22;64574;48.506;-2.750;2023-09-07T10:59:16;25.50;68.20
75621;DHT22;64574;48.506;-2.750;2023-09-07T11:01:43;25.40;68.60
75621;DHT22;64574;48.506;-2.750;2023-09-07T11:04:09;25.50;68.40
75621;DHT22;64574;48.506;-2.750;2023-09-07T11:06:38;25.50;68.70
75621;DHT22;64574;48.506;-2.750;2023-09-07T11:09:04;25.40;68.60
75621;DHT22;64574;48.506;-2.750;2023-09-07T11:11:32;25.40;68.80
75621;DHT22;64574;48.506;-2.750;2023-09-07T11:13:58;25.40;69.10
75621;DHT22;64574;48.506;-2.750;2023-09-07T11:16:25;25.40;68.00
75621;DHT22;64574;48.506;-2.750;2023-09-07T11:18:52;25.50;66.90
75621;DHT22;64574;48.506;-2.750;2023-09-07T11:21:20;25.50;67.20
75621;DHT22;64574;48.506;-2.750;2023-09-07T11:23:46;25.40;67.40
75621;DHT22;64574;48.506;-2.750;2023-09-07T11:26:11;25.40;68.10
75621;DHT22;64574;48.506;-2.750;2023-09-07T11:28:38;25.40;68.00
75621;DHT22;64574;48.506;-2.750;2023-09-07T11:31:04;25.50;67.20
75621;DHT22;64574;48.506;-2.750;2023-09-07T11:33:33;25.50;66.10
75621;DHT22;64574;48.506;-2.750;2023-09-07T11:35:59;25.70;65.20
75621;DHT22;64574;48.506;-2.750;2023-09-07T11:38:34;25.60;65.60
75621;DHT22;64574;48.506;-2.750;2023-09-07T11:41:00;25.60;66.10
75621;DHT22;64574;48.506;-2.750;2023-09-07T11:43:26;25.50;66.40
75621;DHT22;64574;48.506;-2.750;2023-09-07T11:45:51;25.50;65.00
75621;DHT22;64574;48.506;-2.750;2023-09-07T11:48:17;25.50;63.80
75621;DHT22;64574;48.506;-2.750;2023-09-07T11:50:43;25.50;63.80
75621;DHT22;64574;48.506;-2.750;2023-09-07T11:53:09;25.50;63.80
75621;DHT22;64574;48.506;-2.750;2023-09-07T11:55:35;25.60;62.80
75621;DHT22;64574;48.506;-2.750;2023-09-07T11:58:01;25.60;63.00
75621;DHT22;64574;48.506;-2.750;2023-09-07T12:00:27;25.50;63.00
75621;DHT22;64574;48.506;-2.750;2023-09-07T12:02:53;25.40;63.40
75621;DHT22;64574;48.506;-2.750;2023-09-07T12:05:19;25.40;62.70
75621;DHT22;64574;48.506;-2.750;2023-09-07T12:07:45;25.40;62.60
75621;DHT22;64574;48.506;-2.750;2023-09-07T12:10:11;25.50;62.70
75621;DHT22;64574;48.506;-2.750;2023-09-07T12:12:42;25.50;63.00
75621;DHT22;64574;48.506;-2.750;2023-09-07T12:15:09;25.40;63.10
75621;DHT22;64574;48.506;-2.750;2023-09-07T12:17:37;25.40;62.90
75621;DHT22;64574;48.506;-2.750;2023-09-07T12:20:03;25.50;62.50
75621;DHT22;64574;48.506;-2.750;2023-09-07T12:22:31;25.60;62.10
75621;DHT22;64574;48.506;-2.750;2023-09-07T12:24:59;25.80;61.80
75621;DHT22;64574;48.506;-2.750;2023-09-07T12:27:25;25.80;61.70
75621;DHT22;64574;48.506;-2.750;2023-09-07T12:29:50;26.00;60.90
75621;DHT22;64574;48.506;-2.750;2023-09-07T12:32:16;25.90;60.70
75621;DHT22;64574;48.506;-2.750;2023-09-07T12:34:41;25.80;61.00
75621;DHT22;64574;48.506;-2.750;2023-09-07T12:37:07;25.80;60.80
75621;DHT22;64574;48.506;-2.750;2023-09-07T12:39:33;26.00;60.50
75621;DHT22;64574;48.506;-2.750;2023-09-07T12:41:58;26.00;59.70
75621;DHT22;64574;48.506;-2.750;2023-09-07T12:44:24;26.20;59.40
75621;DHT22;64574;48.506;-2.750;2023-09-07T12:46:50;26.20;59.50
75621;DHT22;64574;48.506;-2.750;2023-09-07T12:49:15;26.20;59.90
75621;DHT22;64574;48.506;-2.750;2023-09-07T12:51:41;26.30;59.80
75621;DHT22;64574;48.506;-2.750;2023-09-07T12:54:07;26.10;60.60
75621;DHT22;64574;48.506;-2.750;2023-09-07T12:56:33;26.00;61.00
75621;DHT22;64574;48.506;-2.750;2023-09-07T12:58:59;26.00;60.90
75621;DHT22;64574;48.506;-2.750;2023-09-07T13:01:25;26.20;60.80
75621;DHT22;64574;48.506;-2.750;2023-09-07T13:03:51;26.20;60.90
75621;DHT22;64574;48.506;-2.750;2023-09-07T13:06:17;26.40;60.80
75621;DHT22;64574;48.506;-2.750;2023-09-07T13:08:43;26.40;60.80
75621;DHT22;64574;48.506;-2.750;2023-09-07T13:11:10;26.40;61.60
75621;DHT22;64574;48.506;-2.750;2023-09-07T13:13:35;26.70;61.50
75621;DHT22;64574;48.506;-2.750;2023-09-07T13:16:01;26.70;61.50
75621;DHT22;64574;48.506;-2.750;2023-09-07T13:18:27;26.70;60.40
75621;DHT22;64574;48.506;-2.750;2023-09-07T13:20:53;27.20;58.30
75621;DHT22;64574;48.506;-2.750;2023-09-07T13:23:27;26.90;59.20
75621;DHT22;64574;48.506;-2.750;2023-09-07T13:25:57;26.60;59.70
75621;DHT22;64574;48.506;-2.750;2023-09-07T13:28:23;26.40;60.60
75621;DHT22;64574;48.506;-2.750;2023-09-07T13:30:50;26.20;61.20
75621;DHT22;64574;48.506;-2.750;2023-09-07T13:33:16;26.20;61.50
75621;DHT22;64574;48.506;-2.750;2023-09-07T13:35:41;26.40;60.70
75621;DHT22;64574;48.506;-2.750;2023-09-07T13:38:07;26.30;60.70
75621;DHT22;64574;48.506;-2.750;2023-09-07T13:40:33;26.40;60.20
75621;DHT22;64574;48.506;-2.750;2023-09-07T13:42:58;26.40;59.90
75621;DHT22;64574;48.506;-2.750;2023-09-07T13:45:24;26.60;58.80
75621;DHT22;64574;48.506;-2.750;2023-09-07T13:47:50;26.70;59.30
75621;DHT22;64574;48.506;-2.750;2023-09-07T13:50:16;26.60;60.30
75621;DHT22;64574;48.506;-2.750;2023-09-07T13:52:41;26.70;61.10
75621;DHT22;64574;48.506;-2.750;2023-09-07T13:55:07;26.80;61.00
75621;DHT22;64574;48.506;-2.750;2023-09-07T13:57:33;26.90;60.20
75621;DHT22;64574;48.506;-2.750;2023-09-07T14:00:00;26.90;59.90
75621;DHT22;64574;48.506;-2.750;2023-09-07T14:02:26;26.90;60.10
75621;DHT22;64574;48.506;-2.750;2023-09-07T14:04:51;26.90;59.20
75621;DHT22;64574;48.506;-2.750;2023-09-07T14:07:17;26.90;59.70
75621;DHT22;64574;48.506;-2.750;2023-09-07T14:09:43;27.00;59.80
75621;DHT22;64574;48.506;-2.750;2023-09-07T14:12:09;27.00;58.00
75621;DHT22;64574;48.506;-2.750;2023-09-07T14:14:35;27.00;58.00
75621;DHT22;64574;48.506;-2.750;2023-09-07T14:17:01;26.80;58.40
75621;DHT22;64574;48.506;-2.750;2023-09-07T14:19:27;26.80;57.80
75621;DHT22;64574;48.506;-2.750;2023-09-07T14:21:58;27.00;58.20
75621;DHT22;64574;48.506;-2.750;2023-09-07T14:24:24;27.40;57.80
75621;DHT22;64574;48.506;-2.750;2023-09-07T14:26:50;27.50;57.80
75621;DHT22;64574;48.506;-2.750;2023-09-07T14:29:16;27.40;57.90
75621;DHT22;64574;48.506;-2.750;2023-09-07T14:31:42;27.20;57.50
75621;DHT22;64574;48.506;-2.750;2023-09-07T14:34:09;27.20;57.30
75621;DHT22;64574;48.506;-2.750;2023-09-07T14:36:36;27.20;57.00
75621;DHT22;64574;48.506;-2.750;2023-09-07T14:39:02;27.30;57.40
75621;DHT22;64574;48.506;-2.750;2023-09-07T14:41:28;27.20;57.70
75621;DHT22;64574;48.506;-2.750;2023-09-07T14:43:55;27.20;57.30
75621;DHT22;64574;48.506;-2.750;2023-09-07T14:46:21;27.00;57.50
75621;DHT22;64574;48.506;-2.750;2023-09-07T14:48:48;26.80;57.90
75621;DHT22;64574;48.506;-2.750;2023-09-07T14:51:15;26.80;58.10
75621;DHT22;64574;48.506;-2.750;2023-09-07T14:53:40;27.20;56.30
75621;DHT22;64574;48.506;-2.750;2023-09-07T14:56:06;27.30;55.60
75621;DHT22;64574;48.506;-2.750;2023-09-07T14:58:32;27.40;56.20
75621;DHT22;64574;48.506;-2.750;2023-09-07T15:00:57;27.80;54.00
75621;DHT22;64574;48.506;-2.750;2023-09-07T15:03:23;27.80;54.30
75621;DHT22;64574;48.506;-2.750;2023-09-07T15:05:49;27.60;54.60
75621;DHT22;64574;48.506;-2.750;2023-09-07T15:08:15;27.50;55.00
75621;DHT22;64574;48.506;-2.750;2023-09-07T15:10:41;27.50;55.00
75621;DHT22;64574;48.506;-2.750;2023-09-07T15:13:06;27.50;55.20